sensor_id;sensor_type;location;lat;lon;timestamp;pressure;altitude;pressure_sealevel;temperature
66180;BMP280;52986;44.028;20.466;2023-06-10T00:01:53;97684.16;;;19.77
66180;BMP280;52986;44.028;20.466;2023-06-10T00:04:23;97681.31;;;19.70
66180;BMP280;52986;44.028;20.466;2023-06-10T00:06:48;97685.50;;;19.71
66180;BMP280;52986;44.028;20.466;2023-06-10T00:09:15;97667.44;;;19.73
66180;BMP280;52986;44.028;20.466;2023-06-10T00:11:41;97673.16;;;19.70
66180;BMP280;52986;44.028;20.466;2023-06-10T00:14:07;97677.63;;;19.67
66180;BMP280;52986;44.028;20.466;2023-06-10T00:16:33;97673.34;;;19.72
66180;BMP280;52986;44.028;20.466;2023-06-10T00:19:00;97680.84;;;19.66
66180;BMP280;52986;44.028;20.466;2023-06-10T00:21:31;97678.16;;;19.60
66180;BMP280;52986;44.028;20.466;2023-06-10T00:24:03;97681.69;;;19.55
66180;BMP280;52986;44.028;20.466;2023-06-10T00:26:30;97686.72;;;19.45
66180;BMP280;52986;44.028;20.466;2023-06-10T00:28:56;97687.25;;;19.44
66180;BMP280;52986;44.028;20.466;2023-06-10T00:31:21;97695.63;;;19.40
66180;BMP280;52986;44.028;20.466;2023-06-10T00:33:46;97697.13;;;19.41
66180;BMP280;52986;44.028;20.466;2023-06-10T00:36:12;97697.13;;;19.41
66180;BMP280;52986;44.028;20.466;2023-06-10T00:38:37;97694.19;;;19.39
66180;BMP280;52986;44.028;20.466;2023-06-10T00:41:02;97692.47;;;19.36
66180;BMP280;52986;44.028;20.466;2023-06-10T00:43:28;97685.63;;;19.30
66180;BMP280;52986;44.028;20.466;2023-06-10T00:45:54;97684.19;;;19.23
66180;BMP280;52986;44.028;20.466;2023-06-10T00:48:19;97694.31;;;19.23
66180;BMP280;52986;44.028;20.466;2023-06-10T00:50:46;97694.84;;;19.21
66180;BMP280;52986;44.028;20.466;2023-06-10T00:53:12;97691.66;;;19.17
66180;BMP280;52986;44.028;20.466;2023-06-10T00:55:37;97693.94;;;19.13
66180;BMP280;52986;44.028;20.466;2023-06-10T00:58:03;97691.25;;;19.07
66180;BMP280;52986;44.028;20.466;2023-06-10T01:00:29;97679.91;;;19.03
66180;BMP280;52986;44.028;20.466;2023-06-10T01:02:54;97682.09;;;19.05
66180;BMP280;52986;44.028;20.466;2023-06-10T01:05:20;97683.63;;;19.00
66180;BMP280;52986;44.028;20.466;2023-06-10T01:11:08;97688.06;;;19.03
66180;BMP280;52986;44.028;20.466;2023-06-10T01:13:40;97688.56;;;19.02
66180;BMP280;52986;44.028;20.466;2023-06-10T01:16:06;97688.56;;;19.02
66180;BMP280;52986;44.028;20.466;2023-06-10T01:18:32;97690.06;;;18.97
66180;BMP280;52986;44.028;20.466;2023-06-10T01:20:58;97696.00;;;18.96
66180;BMP280;52986;44.028;20.466;2023-06-10T01:23:23;97683.44;;;18.93
66180;BMP280;52986;44.028;20.466;2023-06-10T01:25:57;97690.34;;;18.94
66180;BMP280;52986;44.028;20.466;2023-06-10T01:28:40;97676.53;;;18.92
66180;BMP280;52986;44.028;20.466;2023-06-10T01:34:00;97674.59;;;18.87
66180;BMP280;52986;44.028;20.466;2023-06-10T01:36:26;97669.44;;;18.83
66180;BMP280;52986;44.028;20.466;2023-06-10T01:38:53;97671.97;;;18.75
66180;BMP280;52986;44.028;20.466;2023-06-10T01:41:19;97667.75;;;18.74
66180;BMP280;52986;44.028;20.466;2023-06-10T01:43:47;97678.19;;;18.65
66180;BMP280;52986;44.028;20.466;2023-06-10T01:46:13;97678.69;;;18.63
66180;BMP280;52986;44.028;20.466;2023-06-10T01:48:38;97688.03;;;18.68
66180;BMP280;52986;44.028;20.466;2023-06-10T01:51:04;97684.88;;;18.58
66180;BMP280;52986;44.028;20.466;2023-06-10T01:53:30;97681.69;;;18.54
66180;BMP280;52986;44.028;20.466;2023-06-10T01:55:55;97676.81;;;18.47
66180;BMP280;52986;44.028;20.466;2023-06-10T01:58:21;97679.53;;;18.47
66180;BMP280;52986;44.028;20.466;2023-06-10T02:00:46;97682.50;;;18.43
66180;BMP280;52986;44.028;20.466;2023-06-10T02:03:12;97673.09;;;18.44
66180;BMP280;52986;44.028;20.466;2023-06-10T02:05:37;97676.84;;;18.41
66180;BMP280;52986;44.028;20.466;2023-06-10T02:08:03;97672.41;;;18.38
66180;BMP280;52986;44.028;20.466;2023-06-10T02:10:28;97671.19;;;18.34
66180;BMP280;52986;44.028;20.466;2023-06-10T02:12:54;97668.50;;;18.34
66180;BMP280;52986;44.028;20.466;2023-06-10T02:15:20;97677.59;;;18.36
66180;BMP280;52986;44.028;20.466;2023-06-10T02:17:45;97683.03;;;18.36
66180;BMP280;52986;44.028;20.466;2023-06-10T02:20:11;97678.31;;;18.42
66180;BMP280;52986;44.028;20.466;2023-06-10T02:22:37;97672.19;;;18.36
66180;BMP280;52986;44.028;20.466;2023-06-10T02:25:02;97669.94;;;18.40
66180;BMP280;52986;44.028;20.466;2023-06-10T02:27:29;97673.09;;;18.44
66180;BMP280;52986;44.028;20.466;2023-06-10T02:29:56;97673.84;;;18.45
66180;BMP280;52986;44.028;20.466;2023-06-10T02:32:21;97670.69;;;18.41
66180;BMP280;52986;44.028;20.466;2023-06-10T02:34:47;97665.53;;;18.32
66180;BMP280;52986;44.028;20.466;2023-06-10T02:37:14;97659.63;;;18.28
66180;BMP280;52986;44.028;20.466;2023-06-10T02:39:39;97661.59;;;18.27
66180;BMP280;52986;44.028;20.466;2023-06-10T02:42:05;97663.06;;;18.34
66180;BMP280;52986;44.028;20.466;2023-06-10T02:44:31;97652.97;;;18.34
66180;BMP280;52986;44.028;20.466;2023-06-10T02:46:57;97655.91;;;18.36
66180;BMP280;52986;44.028;20.466;2023-06-10T02:49:22;97653.19;;;18.36
66180;BMP280;52986;44.028;20.466;2023-06-10T02:51:48;97654.44;;;18.35
66180;BMP280;52986;44.028;20.466;2023-06-10T02:54:13;97658.16;;;18.27
66180;BMP280;52986;44.028;20.466;2023-06-10T02:56:38;97672.25;;;18.20
66180;BMP280;52986;44.028;20.466;2023-06-10T02:59:07;97660.41;;;18.23
66180;BMP280;52986;44.028;20.466;2023-06-10T03:01:33;97661.63;;;18.16
66180;BMP280;52986;44.028;20.466;2023-06-10T03:04:01;97666.84;;;18.14
66180;BMP280;52986;44.028;20.466;2023-06-10T03:06:27;97659.47;;;18.09
66180;BMP280;52986;44.028;20.466;2023-06-10T03:08:53;97667.63;;;18.03
66180;BMP280;52986;44.028;20.466;2023-06-10T03:11:19;97661.72;;;18.05
66180;BMP280;52986;44.028;20.466;2023-06-10T03:13:44;97665.69;;;17.98
66180;BMP280;52986;44.028;20.466;2023-06-10T03:16:10;97663.44;;;17.97
66180;BMP280;52986;44.028;20.466;2023-06-10T03:18:37;97666.91;;;17.92
66180;BMP280;52986;44.028;20.466;2023-06-10T03:21:03;97675.31;;;17.94
66180;BMP280;52986;44.028;20.466;2023-06-10T03:23:28;97672.09;;;17.95
66180;BMP280;52986;44.028;20.466;2023-06-10T03:25:54;97676.78;;;17.89
66180;BMP280;52986;44.028;20.466;2023-06-10T03:28:20;97677.03;;;17.91
66180;BMP280;52986;44.028;20.466;2023-06-10T03:30:46;97679.75;;;17.91
66180;BMP280;52986;44.028;20.466;2023-06-10T03:33:12;97678.25;;;17.90
66180;BMP280;52986;44.028;20.466;2023-06-10T03:35:37;97689.09;;;17.90
66180;BMP280;52986;44.028;20.466;2023-06-10T03:38:03;97688.56;;;17.97
66180;BMP280;52986;44.028;20.466;2023-06-10T03:40:28;97690.53;;;17.97
66180;BMP280;52986;44.028;20.466;2023-06-10T03:42:55;97691.56;;;17.94
66180;BMP280;52986;44.028;20.466;2023-06-10T03:45:21;97688.38;;;17.90
66180;BMP280;52986;44.028;20.466;2023-06-10T03:47:46;97689.59;;;17.77
66180;BMP280;52986;44.028;20.466;2023-06-10T03:50:13;97691.38;;;17.75
66180;BMP280;52986;44.028;20.466;2023-06-10T03:52:38;97697.28;;;17.68
66180;BMP280;52986;44.028;20.466;2023-06-10T03:55:05;97694.06;;;17.64
66180;BMP280;52986;44.028;20.466;2023-06-10T03:57:31;97696.56;;;17.62
66180;BMP280;52986;44.028;20.466;2023-06-10T03:59:57;97686.44;;;17.68
66180;BMP280;52986;44.028;20.466;2023-06-10T04:02:23;97681.72;;;17.85
66180;BMP280;52986;44.028;20.466;2023-06-10T04:04:48;97678.00;;;18.05
66180;BMP280;52986;44.028;20.466;2023-06-10T04:07:14;97681.09;;;18.26
66180;BMP280;52986;44.028;20.466;2023-06-10T04:09:40;97677.81;;;18.44
66180;BMP280;52986;44.028;20.466;2023-06-10T04:12:05;97675.31;;;18.52
66180;BMP280;52986;44.028;20.466;2023-06-10T04:14:35;97682.88;;;18.64
66180;BMP280;52986;44.028;20.466;2023-06-10T04:17:04;97695.94;;;18.71
66180;BMP280;52986;44.028;20.466;2023-06-10T04:19:32;97698.34;;;18.75
66180;BMP280;52986;44.028;20.466;2023-06-10T04:21:57;97700.53;;;18.76
66180;BMP280;52986;44.028;20.466;2023-06-10T04:24:23;97695.66;;;18.75
66180;BMP280;52986;44.028;20.466;2023-06-10T04:26:48;97695.13;;;18.76
66180;BMP280;52986;44.028;20.466;2023-06-10T04:29:13;97699.78;;;18.81
66180;BMP280;52986;44.028;20.466;2023-06-10T04:31:39;97700.28;;;18.86
66180;BMP280;52986;44.028;20.466;2023-06-10T04:34:04;97709.34;;;18.94
66180;BMP280;52986;44.028;20.466;2023-06-10T04:36:30;97698.66;;;19.07
66180;BMP280;52986;44.028;20.466;2023-06-10T04:38:55;97701.47;;;19.26
66180;BMP280;52986;44.028;20.466;2023-06-10T04:41:20;97694.59;;;19.49
66180;BMP280;52986;44.028;20.466;2023-06-10T04:43:47;97699.19;;;19.84
66180;BMP280;52986;44.028;20.466;2023-06-10T04:46:12;97701.13;;;20.08
66180;BMP280;52986;44.028;20.466;2023-06-10T04:48:38;97712.16;;;20.40
66180;BMP280;52986;44.028;20.466;2023-06-10T04:51:04;97714.63;;;20.56
66180;BMP280;52986;44.028;20.466;2023-06-10T04:53:30;97707.59;;;20.80
66180;BMP280;52986;44.028;20.466;2023-06-10T04:55:57;97705.25;;;20.89
66180;BMP280;52986;44.028;20.466;2023-06-10T04:58:25;97707.56;;;20.99
66180;BMP280;52986;44.028;20.466;2023-06-10T05:00:50;97709.50;;;21.17
66180;BMP280;52986;44.028;20.466;2023-06-10T05:03:15;97713.31;;;21.27
66180;BMP280;52986;44.028;20.466;2023-06-10T05:05:41;97701.78;;;21.34
66180;BMP280;52986;44.028;20.466;2023-06-10T05:08:06;97705.34;;;21.29
66180;BMP280;52986;44.028;20.466;2023-06-10T05:10:32;97704.31;;;21.45
66180;BMP280;52986;44.028;20.466;2023-06-10T05:12:59;97706.84;;;21.56
66180;BMP280;52986;44.028;20.466;2023-06-10T05:15:24;97699.00;;;21.79
66180;BMP280;52986;44.028;20.466;2023-06-10T05:17:50;97702.88;;;21.97
66180;BMP280;52986;44.028;20.466;2023-06-10T05:20:15;97697.56;;;22.12
66180;BMP280;52986;44.028;20.466;2023-06-10T05:22:40;97702.63;;;22.42
66180;BMP280;52986;44.028;20.466;2023-06-10T05:25:06;97698.72;;;22.64
66180;BMP280;52986;44.028;20.466;2023-06-10T05:27:32;97696.34;;;23.09
66180;BMP280;52986;44.028;20.466;2023-06-10T05:29:57;97697.44;;;23.63
66180;BMP280;52986;44.028;20.466;2023-06-10T05:32:23;97693.69;;;23.81
66180;BMP280;52986;44.028;20.466;2023-06-10T05:34:48;97690.47;;;23.91
66180;BMP280;52986;44.028;20.466;2023-06-10T05:37:14;97692.97;;;23.88
66180;BMP280;52986;44.028;20.466;2023-06-10T05:39:39;97700.72;;;23.98
66180;BMP280;52986;44.028;20.466;2023-06-10T05:42:06;97691.97;;;24.07
66180;BMP280;52986;44.028;20.466;2023-06-10T05:44:32;97697.50;;;24.22
66180;BMP280;52986;44.028;20.466;2023-06-10T05:46:58;97698.63;;;24.34
66180;BMP280;52986;44.028;20.466;2023-06-10T05:49:23;97706.84;;;24.42
66180;BMP280;52986;44.028;20.466;2023-06-10T05:51:49;97710.31;;;24.42
66180;BMP280;52986;44.028;20.466;2023-06-10T05:54:15;97699.00;;;24.38
66180;BMP280;52986;44.028;20.466;2023-06-10T05:56:40;97704.47;;;24.38
66180;BMP280;52986;44.028;20.466;2023-06-10T05:59:05;97703.44;;;24.64
66180;BMP280;52986;44.028;20.466;2023-06-10T06:01:31;97710.53;;;24.97
66180;BMP280;52986;44.028;20.466;2023-06-10T06:03:56;97707.78;;;25.35
66180;BMP280;52986;44.028;20.466;2023-06-10T06:06:21;97712.78;;;25.69
66180;BMP280;52986;44.028;20.466;2023-06-10T06:08:47;97712.03;;;26.16
66180;BMP280;52986;44.028;20.466;2023-06-10T06:11:12;97711.28;;;26.48
66180;BMP280;52986;44.028;20.466;2023-06-10T06:13:38;97704.72;;;26.93
66180;BMP280;52986;44.028;20.466;2023-06-10T06:16:04;97699.72;;;27.00
66180;BMP280;52986;44.028;20.466;2023-06-10T06:18:29;97700.28;;;26.98
66180;BMP280;52986;44.028;20.466;2023-06-10T06:20:55;97701.94;;;26.76
66180;BMP280;52986;44.028;20.466;2023-06-10T06:23:20;97697.63;;;27.08
66180;BMP280;52986;44.028;20.466;2023-06-10T06:25:45;97705.75;;;27.40
66180;BMP280;52986;44.028;20.466;2023-06-10T06:28:11;97695.91;;;27.64
66180;BMP280;52986;44.028;20.466;2023-06-10T06:30:36;97687.97;;;27.68
66180;BMP280;52986;44.028;20.466;2023-06-10T06:33:02;97690.75;;;27.95
66180;BMP280;52986;44.028;20.466;2023-06-10T06:35:27;97699.19;;;28.33
66180;BMP280;52986;44.028;20.466;2023-06-10T06:37:55;97693.31;;;28.19
66180;BMP280;52986;44.028;20.466;2023-06-10T06:40:20;97693.03;;;28.15
66180;BMP280;52986;44.028;20.466;2023-06-10T06:42:46;97693.75;;;27.89
66180;BMP280;52986;44.028;20.466;2023-06-10T06:45:11;97686.75;;;27.78
66180;BMP280;52986;44.028;20.466;2023-06-10T06:47:37;97689.22;;;28.11
66180;BMP280;52986;44.028;20.466;2023-06-10T06:50:02;97693.72;;;28.52
66180;BMP280;52986;44.028;20.466;2023-06-10T06:52:28;97688.16;;;27.97
66180;BMP280;52986;44.028;20.466;2023-06-10T06:54:53;97687.91;;;27.85
66180;BMP280;52986;44.028;20.466;2023-06-10T06:57:19;97695.25;;;28.82
66180;BMP280;52986;44.028;20.466;2023-06-10T06:59:44;97690.94;;;29.47
66180;BMP280;52986;44.028;20.466;2023-06-10T07:02:10;97687.72;;;29.50
66180;BMP280;52986;44.028;20.466;2023-06-10T07:04:35;97688.00;;;29.06
66180;BMP280;52986;44.028;20.466;2023-06-10T07:07:00;97696.88;;;29.14
66180;BMP280;52986;44.028;20.466;2023-06-10T07:09:26;97690.78;;;28.41
66180;BMP280;52986;44.028;20.466;2023-06-10T07:11:51;97690.56;;;27.93
66180;BMP280;52986;44.028;20.466;2023-06-10T07:14:17;97692.22;;;28.32
66180;BMP280;52986;44.028;20.466;2023-06-10T07:16:42;97685.41;;;27.97
66180;BMP280;52986;44.028;20.466;2023-06-10T07:19:07;97697.66;;;28.13
66180;BMP280;52986;44.028;20.466;2023-06-10T07:21:33;97689.81;;;29.21
66180;BMP280;52986;44.028;20.466;2023-06-10T07:23:59;97697.69;;;29.84
66180;BMP280;52986;44.028;20.466;2023-06-10T07:26:24;97693.94;;;30.72
66180;BMP280;52986;44.028;20.466;2023-06-10T07:28:51;97688.00;;;30.87
66180;BMP280;52986;44.028;20.466;2023-06-10T07:31:16;97690.47;;;31.26
66180;BMP280;52986;44.028;20.466;2023-06-10T07:33:41;97684.47;;;31.41
66180;BMP280;52986;44.028;20.466;2023-06-10T07:36:08;97684.00;;;32.49
66180;BMP280;52986;44.028;20.466;2023-06-10T07:38:34;97678.00;;;33.54
66180;BMP280;52986;44.028;20.466;2023-06-10T07:41:00;97692.56;;;34.07
66180;BMP280;52986;44.028;20.466;2023-06-10T07:43:25;97678.56;;;34.91
66180;BMP280;52986;44.028;20.466;2023-06-10T07:45:51;97692.91;;;34.70
66180;BMP280;52986;44.028;20.466;2023-06-10T07:48:16;97682.44;;;35.29
66180;BMP280;52986;44.028;20.466;2023-06-10T07:50:41;97688.56;;;35.41
66180;BMP280;52986;44.028;20.466;2023-06-10T07:53:07;97672.63;;;35.12
66180;BMP280;52986;44.028;20.466;2023-06-10T07:55:32;97693.06;;;34.31
66180;BMP280;52986;44.028;20.466;2023-06-10T07:57:57;97688.06;;;34.86
66180;BMP280;52986;44.028;20.466;2023-06-10T08:00:23;97687.47;;;35.17
66180;BMP280;52986;44.028;20.466;2023-06-10T08:02:48;97688.56;;;34.96
66180;BMP280;52986;44.028;20.466;2023-06-10T08:05:14;97687.84;;;35.72
66180;BMP280;52986;44.028;20.466;2023-06-10T08:07:40;97689.41;;;35.14
66180;BMP280;52986;44.028;20.466;2023-06-10T08:10:06;97679.19;;;35.19
66180;BMP280;52986;44.028;20.466;2023-06-10T08:12:32;97689.72;;;35.36
66180;BMP280;52986;44.028;20.466;2023-06-10T08:14:58;97682.16;;;35.85
66180;BMP280;52986;44.028;20.466;2023-06-10T08:17:24;97680.25;;;35.74
66180;BMP280;52986;44.028;20.466;2023-06-10T08:19:49;97667.66;;;35.89
66180;BMP280;52986;44.028;20.466;2023-06-10T08:22:15;97672.53;;;35.73
66180;BMP280;52986;44.028;20.466;2023-06-10T08:24:40;97676.13;;;35.75
66180;BMP280;52986;44.028;20.466;2023-06-10T08:27:05;97669.09;;;35.74
66180;BMP280;52986;44.028;20.466;2023-06-10T08:29:31;97659.03;;;35.20
66180;BMP280;52986;44.028;20.466;2023-06-10T08:31:57;97670.94;;;35.36
66180;BMP280;52986;44.028;20.466;2023-06-10T08:34:22;97665.91;;;36.13
66180;BMP280;52986;44.028;20.466;2023-06-10T08:36:48;97661.22;;;35.53
66180;BMP280;52986;44.028;20.466;2023-06-10T08:39:19;97649.06;;;34.70
66180;BMP280;52986;44.028;20.466;2023-06-10T08:41:49;97664.63;;;35.83
66180;BMP280;52986;44.028;20.466;2023-06-10T08:44:17;97638.59;;;33.98
66180;BMP280;52986;44.028;20.466;2023-06-10T08:46:45;97635.06;;;32.42
66180;BMP280;52986;44.028;20.466;2023-06-10T08:49:13;97649.34;;;31.78
66180;BMP280;52986;44.028;20.466;2023-06-10T08:51:41;97632.16;;;31.91
66180;BMP280;52986;44.028;20.466;2023-06-10T08:54:20;97637.53;;;30.77
66180;BMP280;52986;44.028;20.466;2023-06-10T08:56:49;97660.81;;;31.96
66180;BMP280;52986;44.028;20.466;2023-06-10T08:59:15;97632.72;;;31.10
66180;BMP280;52986;44.028;20.466;2023-06-10T09:01:44;97642.41;;;30.46
66180;BMP280;52986;44.028;20.466;2023-06-10T09:04:10;97637.91;;;29.89
66180;BMP280;52986;44.028;20.466;2023-06-10T09:06:35;97663.63;;;30.95
66180;BMP280;52986;44.028;20.466;2023-06-10T09:09:02;97663.41;;;32.89
66180;BMP280;52986;44.028;20.466;2023-06-10T09:11:28;97629.06;;;33.35
66180;BMP280;52986;44.028;20.466;2023-06-10T09:13:53;97633.44;;;31.56
66180;BMP280;52986;44.028;20.466;2023-06-10T09:16:19;97623.06;;;30.67
66180;BMP280;52986;44.028;20.466;2023-06-10T09:18:45;97626.69;;;29.87
66180;BMP280;52986;44.028;20.466;2023-06-10T09:21:10;97631.53;;;29.07
66180;BMP280;52986;44.028;20.466;2023-06-10T09:23:37;97627.31;;;28.68
66180;BMP280;52986;44.028;20.466;2023-06-10T09:26:02;97644.44;;;28.76
66180;BMP280;52986;44.028;20.466;2023-06-10T09:28:30;97656.66;;;28.73
66180;BMP280;52986;44.028;20.466;2023-06-10T09:31:06;97653.03;;;29.28
66180;BMP280;52986;44.028;20.466;2023-06-10T09:33:33;97669.13;;;29.91
66180;BMP280;52986;44.028;20.466;2023-06-10T09:36:02;97633.25;;;29.12
66180;BMP280;52986;44.028;20.466;2023-06-10T09:38:32;97658.22;;;29.43
66180;BMP280;52986;44.028;20.466;2023-06-10T09:40:58;97658.72;;;29.80
66180;BMP280;52986;44.028;20.466;2023-06-10T09:43:38;97653.69;;;29.98
66180;BMP280;52986;44.028;20.466;2023-06-10T09:46:04;97660.81;;;28.08
66180;BMP280;52986;44.028;20.466;2023-06-10T09:48:29;97639.25;;;26.75
66180;BMP280;52986;44.028;20.466;2023-06-10T09:50:59;97640.19;;;26.52
66180;BMP280;52986;44.028;20.466;2023-06-10T09:53:25;97650.63;;;26.29
66180;BMP280;52986;44.028;20.466;2023-06-10T09:55:52;97646.81;;;25.92
66180;BMP280;52986;44.028;20.466;2023-06-10T09:58:17;97655.00;;;25.67
66180;BMP280;52986;44.028;20.466;2023-06-10T10:00:42;97640.03;;;25.61
66180;BMP280;52986;44.028;20.466;2023-06-10T10:03:08;97623.47;;;25.84
66180;BMP280;52986;44.028;20.466;2023-06-10T10:05:33;97624.09;;;25.67
66180;BMP280;52986;44.028;20.466;2023-06-10T10:07:59;97631.47;;;25.89
66180;BMP280;52986;44.028;20.466;2023-06-10T10:10:24;97627.94;;;25.64
66180;BMP280;52986;44.028;20.466;2023-06-10T10:12:56;97631.34;;;25.32
66180;BMP280;52986;44.028;20.466;2023-06-10T10:15:23;97632.75;;;27.05
66180;BMP280;52986;44.028;20.466;2023-06-10T10:17:53;97665.66;;;28.27
66180;BMP280;52986;44.028;20.466;2023-06-10T10:20:24;97676.53;;;29.38
66180;BMP280;52986;44.028;20.466;2023-06-10T10:22:52;97671.59;;;31.12
66180;BMP280;52986;44.028;20.466;2023-06-10T10:25:24;97678.50;;;31.56
66180;BMP280;52986;44.028;20.466;2023-06-10T10:28:12;97662.19;;;31.06
66180;BMP280;52986;44.028;20.466;2023-06-10T10:30:50;97680.31;;;29.24
66180;BMP280;52986;44.028;20.466;2023-06-10T10:33:19;97689.38;;;27.59
66180;BMP280;52986;44.028;20.466;2023-06-10T10:35:49;97722.47;;;26.18
66180;BMP280;52986;44.028;20.466;2023-06-10T10:38:15;97739.94;;;24.51
66180;BMP280;52986;44.028;20.466;2023-06-10T10:40:41;97720.50;;;23.83
66180;BMP280;52986;44.028;20.466;2023-06-10T10:43:07;97718.97;;;22.89
66180;BMP280;52986;44.028;20.466;2023-06-10T10:45:34;97717.00;;;22.56
66180;BMP280;52986;44.028;20.466;2023-06-10T10:48:05;97714.53;;;22.65
66180;BMP280;52986;44.028;20.466;2023-06-10T10:50:31;97719.63;;;22.82
66180;BMP280;52986;44.028;20.466;2023-06-10T10:53:01;97721.44;;;22.80
66180;BMP280;52986;44.028;20.466;2023-06-10T10:55:27;97717.81;;;22.64
66180;BMP280;52986;44.028;20.466;2023-06-10T10:57:56;97715.31;;;22.19
66180;BMP280;52986;44.028;20.466;2023-06-10T11:05:38;97694.06;;;21.91
66180;BMP280;52986;44.028;20.466;2023-06-10T11:08:04;97696.03;;;21.77
66180;BMP280;52986;44.028;20.466;2023-06-10T11:12:56;97703.47;;;21.37
66180;BMP280;52986;44.028;20.466;2023-06-10T11:15:27;97710.00;;;21.47
66180;BMP280;52986;44.028;20.466;2023-06-10T11:18:13;97707.78;;;21.46
66180;BMP280;52986;44.028;20.466;2023-06-10T11:28:43;97670.66;;;21.82
66180;BMP280;52986;44.028;20.466;2023-06-10T11:31:28;97682.00;;;21.86
66180;BMP280;52986;44.028;20.466;2023-06-10T11:33:56;97668.38;;;21.86
66180;BMP280;52986;44.028;20.466;2023-06-10T11:36:22;97656.81;;;21.80
66180;BMP280;52986;44.028;20.466;2023-06-10T11:38:48;97659.03;;;21.69
66180;BMP280;52986;44.028;20.466;2023-06-10T11:41:16;97668.28;;;21.79
66180;BMP280;52986;44.028;20.466;2023-06-10T11:43:46;97670.13;;;21.84
66180;BMP280;52986;44.028;20.466;2023-06-10T11:46:12;97668.88;;;21.98
66180;BMP280;52986;44.028;20.466;2023-06-10T11:48:38;97674.38;;;22.19
66180;BMP280;52986;44.028;20.466;2023-06-10T11:51:07;97669.28;;;22.36
66180;BMP280;52986;44.028;20.466;2023-06-10T11:53:33;97666.19;;;22.53
66180;BMP280;52986;44.028;20.466;2023-06-10T11:55:58;97661.69;;;22.76
66180;BMP280;52986;44.028;20.466;2023-06-10T11:58:24;97659.31;;;23.01
66180;BMP280;52986;44.028;20.466;2023-06-10T12:00:51;97657.31;;;23.30
66180;BMP280;52986;44.028;20.466;2023-06-10T12:03:19;97646.91;;;23.64
66180;BMP280;52986;44.028;20.466;2023-06-10T12:06:14;97651.28;;;24.03
66180;BMP280;52986;44.028;20.466;2023-06-10T12:08:43;97646.78;;;24.44
66180;BMP280;52986;44.028;20.466;2023-06-10T12:11:08;97635.47;;;24.93
66180;BMP280;52986;44.028;20.466;2023-06-10T12:13:34;97631.38;;;25.24
66180;BMP280;52986;44.028;20.466;2023-06-10T12:16:09;97631.69;;;25.44
66180;BMP280;52986;44.028;20.466;2023-06-10T12:21:00;97629.81;;;25.54
66180;BMP280;52986;44.028;20.466;2023-06-10T12:23:25;97627.53;;;25.27
66180;BMP280;52986;44.028;20.466;2023-06-10T12:25:52;97624.38;;;25.38
66180;BMP280;52986;44.028;20.466;2023-06-10T12:28:21;97619.28;;;25.75
66180;BMP280;52986;44.028;20.466;2023-06-10T12:30:47;97616.78;;;26.02
66180;BMP280;52986;44.028;20.466;2023-06-10T12:33:21;97612.19;;;25.72
66180;BMP280;52986;44.028;20.466;2023-06-10T12:35:51;97597.66;;;25.39
66180;BMP280;52986;44.028;20.466;2023-06-10T12:38:21;97599.97;;;25.18
66180;BMP280;52986;44.028;20.466;2023-06-10T12:40:47;97596.78;;;25.36
66180;BMP280;52986;44.028;20.466;2023-06-10T12:43:13;97599.88;;;25.40
66180;BMP280;52986;44.028;20.466;2023-06-10T12:45:39;97599.34;;;25.34
66180;BMP280;52986;44.028;20.466;2023-06-10T12:48:16;97594.41;;;25.40
66180;BMP280;52986;44.028;20.466;2023-06-10T12:50:42;97594.72;;;25.45
66180;BMP280;52986;44.028;20.466;2023-06-10T12:53:09;97600.47;;;25.16
66180;BMP280;52986;44.028;20.466;2023-06-10T12:55:34;97600.03;;;24.80
66180;BMP280;52986;44.028;20.466;2023-06-10T12:58:00;97586.13;;;24.93
66180;BMP280;52986;44.028;20.466;2023-06-10T13:00:27;97583.03;;;24.89
66180;BMP280;52986;44.028;20.466;2023-06-10T13:02:56;97581.38;;;24.93
66180;BMP280;52986;44.028;20.466;2023-06-10T13:05:21;97578.63;;;24.86
66180;BMP280;52986;44.028;20.466;2023-06-10T13:07:47;97580.44;;;24.91
66180;BMP280;52986;44.028;20.466;2023-06-10T13:10:14;97568.53;;;25.03
66180;BMP280;52986;44.028;20.466;2023-06-10T13:12:39;97572.22;;;24.98
66180;BMP280;52986;44.028;20.466;2023-06-10T13:15:05;97569.47;;;25.06
66180;BMP280;52986;44.028;20.466;2023-06-10T13:17:31;97574.34;;;25.15
66180;BMP280;52986;44.028;20.466;2023-06-10T13:19:56;97565.63;;;25.01
66180;BMP280;52986;44.028;20.466;2023-06-10T13:22:22;97557.84;;;24.68
66180;BMP280;52986;44.028;20.466;2023-06-10T13:24:49;97560.75;;;24.70
66180;BMP280;52986;44.028;20.466;2023-06-10T13:27:14;97552.22;;;24.50
66180;BMP280;52986;44.028;20.466;2023-06-10T13:29:40;97553.47;;;24.49
66180;BMP280;52986;44.028;20.466;2023-06-10T13:32:06;97548.19;;;24.51
66180;BMP280;52986;44.028;20.466;2023-06-10T13:34:31;97556.38;;;24.67
66180;BMP280;52986;44.028;20.466;2023-06-10T13:36:57;97559.13;;;24.74
66180;BMP280;52986;44.028;20.466;2023-06-10T13:39:22;97539.00;;;24.87
66180;BMP280;52986;44.028;20.466;2023-06-10T13:41:48;97535.31;;;24.92
66180;BMP280;52986;44.028;20.466;2023-06-10T13:44:13;97537.94;;;24.75
66180;BMP280;52986;44.028;20.466;2023-06-10T13:46:39;97524.38;;;24.84
66180;BMP280;52986;44.028;20.466;2023-06-10T13:49:04;97521.78;;;24.94
66180;BMP280;52986;44.028;20.466;2023-06-10T13:51:29;97513.69;;;25.11
66180;BMP280;52986;44.028;20.466;2023-06-10T13:53:55;97521.34;;;25.20
66180;BMP280;52986;44.028;20.466;2023-06-10T13:56:20;97516.00;;;25.30
66180;BMP280;52986;44.028;20.466;2023-06-10T13:58:46;97527.06;;;25.39
66180;BMP280;52986;44.028;20.466;2023-06-10T14:01:11;97523.31;;;25.60
66180;BMP280;52986;44.028;20.466;2023-06-10T14:03:36;97521.41;;;25.70
66180;BMP280;52986;44.028;20.466;2023-06-10T14:06:02;97524.97;;;25.88
66180;BMP280;52986;44.028;20.466;2023-06-10T14:08:28;97521.59;;;25.97
66180;BMP280;52986;44.028;20.466;2023-06-10T14:10:53;97520.81;;;26.04
66180;BMP280;52986;44.028;20.466;2023-06-10T14:13:19;97522.03;;;26.10
66180;BMP280;52986;44.028;20.466;2023-06-10T14:15:44;97521.25;;;26.17
66180;BMP280;52986;44.028;20.466;2023-06-10T14:18:10;97529.09;;;26.21